Time;durP1;ratioP1;P1;durP2;ratioP2;P2;SDS_P1;SDS_P2;PMS_P1;PMS_P2;Temp;Humidity;BMP_temperature;BMP_pressure;BME280_temperature;BME280_humidity;BME280_pressure;Samples;Min_cycle;Max_cycle;Signal;HPM_P1;HPM_P2
2021/12/17 00:00:03;;;;;;;;;;;;;;;27.03;25.44;99306.34;171856;28;1227;-51
2021/12/17 00:00:09;;;;;;;;;;;;;;;27.05;25.28;99307.13;171968;28;853;-48
2021/12/17 00:00:18;;;;;;;;;;;;;;;27.02;25.28;99309.88;172501;28;1126;-49
2021/12/17 00:00:23;;;;;;;;;;;;;;;27.04;25.44;99308.91;172448;28;1006;-49
2021/12/17 00:00:28;;;;;;;;;;;;;;;27.04;25.40;99308.06;171927;28;881;-50
2021/12/17 00:00:34;;;;;;;;;;;;;;;27.04;25.19;99313.38;172044;28;1162;-50
2021/12/17 00:00:44;;;;;;;;;;;;;;;27.04;25.09;99308.06;172677;28;860;-50
2021/12/17 00:00:57;;;;;;;;;;;;;;;26.95;25.49;99302.31;171976;28;1098;-51
2021/12/17 00:01:07;;;;;;;;;;;;;;;26.95;25.36;99315.56;172035;28;959;-50
2021/12/17 00:01:13;;;;;;;;;;;;;;;26.91;25.58;99313.16;172253;28;896;-49
2021/12/17 00:01:28;;;;;;;;;;;;;;;26.93;25.33;99317.41;172674;28;872;-50
2021/12/17 00:02:57;;;;;;;;;;;;;;;26.99;25.46;99314.44;171312;28;632;-50
2021/12/17 00:03:10;;;;;;;;;;;;;;;26.95;25.31;99320.84;172149;28;1114;-49
2021/12/17 00:03:21;;;;;;;;;;;;;;;26.84;25.46;99312.66;171400;28;898;-49
2021/12/17 00:03:44;;;;;;;;;;;;;;;26.84;25.30;99315.28;171609;28;4292;-49
2021/12/17 00:03:51;;;;;;;;;;;;;;;26.87;25.44;99316.94;171303;28;846;-49
2021/12/17 00:04:03;;;;;;;;;;;;;;;26.89;25.47;99317.69;171762;28;1059;-50
2021/12/17 00:04:25;;;;;;;;;;;;;;;26.94;25.55;99316.50;171661;28;897;-49
2021/12/17 00:04:39;;;;;;;;;;;;;;;26.82;25.35;99318.97;172643;28;836;-49
2021/12/17 00:04:59;;;;;;;;;;;;;;;26.89;25.37;99321.19;172219;28;1137;-49
2021/12/17 00:05:11;;;;;;;;;;;;;;;26.92;25.50;99323.66;171880;28;1096;-49
2021/12/17 00:05:18;;;;;;;;;;;;;;;26.96;25.28;99319.06;171944;28;822;-49
2021/12/17 00:05:42;;;;;;;;;;;;;;;26.93;25.56;99320.06;172521;28;1910;-49
2021/12/17 00:06:15;;;;;;;;;;;;;;;26.91;25.48;99327.25;172977;28;979;-49
2021/12/17 00:06:47;;;;;;;;;;;;;;;27.04;25.37;99324.81;173043;28;1152;-49
2021/12/17 00:06:53;;;;;;;;;;;;;;;26.99;25.25;99325.03;172798;28;1002;-49
2021/12/17 00:06:58;;;;;;;;;;;;;;;27.01;25.16;99322.28;173173;28;896;-49
2021/12/17 00:07:07;;;;;;;;;;;;;;;27.04;25.37;99319.50;172643;28;1147;-50
2021/12/17 00:07:13;;;;;;;;;;;;;;;26.96;25.17;99322.56;171890;28;847;-50
2021/12/17 00:07:19;;;;;;;;;;;;;;;26.93;25.40;99322.72;173085;28;1262;-49
2021/12/17 00:07:24;;;;;;;;;;;;;;;26.98;25.28;99315.38;172500;28;4292;-49
2021/12/17 00:07:30;;;;;;;;;;;;;;;26.98;25.32;99323.31;173061;28;1251;-48
2021/12/17 00:07:35;;;;;;;;;;;;;;;26.99;25.29;99318.88;173349;28;1015;-49
2021/12/17 00:07:41;;;;;;;;;;;;;;;26.97;25.15;99313.69;172804;28;1173;-50
2021/12/17 00:07:46;;;;;;;;;;;;;;;26.97;25.29;99324.25;172607;28;913;-50
2021/12/17 00:07:51;;;;;;;;;;;;;;;27.00;25.29;99313.50;172827;28;1223;-48
2021/12/17 00:07:56;;;;;;;;;;;;;;;27.03;25.39;99322.22;173190;28;1163;-49
2021/12/17 00:08:01;;;;;;;;;;;;;;;27.04;25.45;99314.22;172772;28;1132;-49
2021/12/17 00:08:07;;;;;;;;;;;;;;;27.03;25.37;99323.06;173293;28;956;-49
2021/12/17 00:08:12;;;;;;;;;;;;;;;27.07;25.10;99318.47;172576;28;817;-50
2021/12/17 00:08:18;;;;;;;;;;;;;;;26.98;25.39;99319.81;173089;28;883;-49
2021/12/17 00:08:23;;;;;;;;;;;;;;;26.98;25.13;99325.97;173337;28;916;-49
2021/12/17 00:08:29;;;;;;;;;;;;;;;26.97;25.39;99324.25;172649;28;1141;-49
2021/12/17 00:08:34;;;;;;;;;;;;;;;26.94;25.47;99323.59;172621;28;810;-50
2021/12/17 00:08:40;;;;;;;;;;;;;;;27.01;25.32;99319.63;172954;28;1137;-50
2021/12/17 00:08:47;;;;;;;;;;;;;;;26.95;25.29;99317.34;173284;28;908;-49
2021/12/17 00:08:53;;;;;;;;;;;;;;;27.03;25.34;99319.56;172674;28;1192;-49
2021/12/17 00:08:58;;;;;;;;;;;;;;;27.05;25.01;99313.28;172522;28;854;-49
2021/12/17 00:09:03;;;;;;;;;;;;;;;27.04;25.49;99316.00;172232;28;1169;-48
2021/12/17 00:09:08;;;;;;;;;;;;;;;27.06;25.13;99317.63;172538;28;944;-48
2021/12/17 00:09:14;;;;;;;;;;;;;;;26.99;25.33;99310.94;172182;28;1149;-50
2021/12/17 00:09:19;;;;;;;;;;;;;;;27.00;25.25;99313.50;172687;28;885;-49
2021/12/17 00:09:24;;;;;;;;;;;;;;;27.04;25.07;99313.38;172577;28;1130;-50
2021/12/17 00:09:29;;;;;;;;;;;;;;;27.07;25.33;99313.19;172014;28;869;-49
2021/12/17 00:09:34;;;;;;;;;;;;;;;27.07;25.32;99313.19;171948;28;1013;-49
2021/12/17 00:09:40;;;;;;;;;;;;;;;27.08;25.10;99314.88;172550;28;1233;-49
2021/12/17 00:09:45;;;;;;;;;;;;;;;27.08;25.32;99321.03;172743;28;857;-50
2021/12/17 00:09:51;;;;;;;;;;;;;;;27.08;24.98;99309.59;172051;28;1149;-49
2021/12/17 00:09:56;;;;;;;;;;;;;;;27.07;25.31;99313.19;172009;28;818;-49
2021/12/17 00:10:06;;;;;;;;;;;;;;;27.08;25.20;99315.72;171753;28;1137;-49
2021/12/17 00:10:13;;;;;;;;;;;;;;;27.13;25.04;99313.69;171942;28;880;-50
2021/12/17 00:10:18;;;;;;;;;;;;;;;27.11;25.22;99314.72;172622;28;996;-49
2021/12/17 00:10:23;;;;;;;;;;;;;;;27.09;25.01;99311.28;172498;28;1137;-49
2021/12/17 00:10:29;;;;;;;;;;;;;;;27.10;25.29;99318.31;171961;28;802;-51
2021/12/17 00:10:34;;;;;;;;;;;;;;;27.04;25.08;99314.22;171979;28;1173;-51
2021/12/17 00:10:39;;;;;;;;;;;;;;;27.07;25.26;99313.19;172580;28;805;-50
2021/12/17 00:10:45;;;;;;;;;;;;;;;26.99;25.15;99311.78;171938;28;885;-49
2021/12/17 00:10:50;;;;;;;;;;;;;;;26.97;25.21;99313.69;172583;28;1106;-49
2021/12/17 00:10:55;;;;;;;;;;;;;;;26.96;25.36;99314.63;172649;28;964;-48
2021/12/17 00:11:01;;;;;;;;;;;;;;;26.97;25.16;99324.25;171942;28;1053;-50
2021/12/17 00:11:06;;;;;;;;;;;;;;;27.02;25.12;99320.47;171986;28;805;-51
2021/12/17 00:11:11;;;;;;;;;;;;;;;27.05;25.08;99320.38;172163;28;1030;-50
2021/12/17 00:11:17;;;;;;;;;;;;;;;27.03;25.15;99317.78;172681;28;885;-49
2021/12/17 00:11:22;;;;;;;;;;;;;;;26.99;25.19;99314.44;172133;28;4291;-49
2021/12/17 00:11:27;;;;;;;;;;;;;;;27.01;25.34;99314.34;171942;28;1062;-50
2021/12/17 00:11:32;;;;;;;;;;;;;;;27.03;25.33;99306.34;171852;28;877;-50
2021/12/17 00:11:37;;;;;;;;;;;;;;;27.07;25.12;99318.47;172587;28;1278;-49
2021/12/17 00:11:43;;;;;;;;;;;;;;;27.08;24.98;99314.88;172691;28;925;-51
2021/12/17 00:11:48;;;;;;;;;;;;;;;27.05;25.07;99310.63;172156;28;1216;-50
2021/12/17 00:11:53;;;;;;;;;;;;;;;27.05;25.20;99310.63;171972;28;825;-50
2021/12/17 00:11:58;;;;;;;;;;;;;;;27.06;25.34;99309.69;172093;28;1216;-49
2021/12/17 00:12:04;;;;;;;;;;;;;;;27.06;25.32;99312.31;171910;28;1179;-49
2021/12/17 00:12:11;;;;;;;;;;;;;;;27.04;25.38;99314.22;172037;28;947;-49
2021/12/17 00:12:17;;;;;;;;;;;;;;;27.07;25.27;99313.19;172666;28;840;-50
2021/12/17 00:12:26;;;;;;;;;;;;;;;27.11;25.33;99312.94;172865;28;1106;-48
2021/12/17 00:12:31;;;;;;;;;;;;;;;27.14;24.98;99318.03;173204;28;825;-50
2021/12/17 00:12:36;;;;;;;;;;;;;;;27.15;24.98;99311.78;172733;28;1177;-49
2021/12/17 00:12:41;;;;;;;;;;;;;;;27.16;24.92;99312.66;172612;28;971;-49
2021/12/17 00:12:47;;;;;;;;;;;;;;;27.09;25.33;99311.28;172982;28;1200;-48
2021/12/17 00:12:52;;;;;;;;;;;;;;;27.08;25.38;99309.59;173304;28;857;-49
2021/12/17 00:12:57;;;;;;;;;;;;;;;27.06;25.38;99314.13;172859;28;1070;-48
2021/12/17 00:13:02;;;;;;;;;;;;;;;27.10;25.26;99307.72;172421;28;1168;-49
2021/12/17 00:13:08;;;;;;;;;;;;;;;27.10;25.24;99307.72;172431;28;790;-49
2021/12/17 00:13:13;;;;;;;;;;;;;;;27.08;25.07;99307.78;172594;28;853;-49
2021/12/17 00:13:18;;;;;;;;;;;;;;;27.03;25.00;99308.97;172647;28;798;-49
2021/12/17 00:13:23;;;;;;;;;;;;;;;27.05;25.12;99315.06;173236;28;1105;-49
2021/12/17 00:13:29;;;;;;;;;;;;;;;27.10;25.04;99310.38;173324;28;802;-49
2021/12/17 00:13:34;;;;;;;;;;;;;;;27.00;25.20;99304.69;172823;28;970;-49
2021/12/17 00:13:40;;;;;;;;;;;;;;;26.95;25.11;99306.78;172593;28;869;-50
2021/12/17 00:13:46;;;;;;;;;;;;;;;26.94;25.41;99305.91;173102;28;1133;-50
2021/12/17 00:13:53;;;;;;;;;;;;;;;26.98;25.27;99314.53;173551;28;865;-49
2021/12/17 00:13:59;;;;;;;;;;;;;;;26.96;25.41;99305.81;172347;28;1184;-49
2021/12/17 00:14:04;;;;;;;;;;;;;;;26.97;25.39;99310.19;172463;28;1251;-51
2021/12/17 00:14:11;;;;;;;;;;;;;;;26.99;25.28;99303.00;172728;28;1173;-49
2021/12/17 00:14:25;;;;;;;;;;;;;;;27.04;25.05;99305.41;172518;28;866;-49
2021/12/17 00:14:36;;;;;;;;;;;;;;;27.03;25.38;99311.63;172626;28;966;-49
2021/12/17 00:14:43;;;;;;;;;;;;;;;27.02;25.05;99310.78;172559;28;1217;-50
2021/12/17 00:14:49;;;;;;;;;;;;;;;26.96;25.09;99311.97;171912;28;1230;-49
2021/12/17 00:14:54;;;;;;;;;;;;;;;26.94;25.46;99305.06;172033;28;1137;-49
2021/12/17 00:14:59;;;;;;;;;;;;;;;26.95;25.31;99310.25;172479;28;1337;-49
2021/12/17 00:15:05;;;;;;;;;;;;;;;26.93;25.23;99312.13;171823;28;858;-49
2021/12/17 00:15:10;;;;;;;;;;;;;;;27.00;25.48;99307.34;171680;28;984;-49
2021/12/17 00:15:15;;;;;;;;;;;;;;;27.00;25.19;99310.00;171983;28;806;-49
2021/12/17 00:15:21;;;;;;;;;;;;;;;27.00;25.31;99308.19;172448;28;1193;-50
2021/12/17 00:15:26;;;;;;;;;;;;;;;27.02;25.31;99312.53;172711;28;4283;-49
2021/12/17 00:15:31;;;;;;;;;;;;;;;27.02;25.31;99309.88;172826;28;1141;-50
2021/12/17 00:15:37;;;;;;;;;;;;;;;27.04;25.35;99310.72;172499;28;976;-50
2021/12/17 00:15:44;;;;;;;;;;;;;;;27.03;25.38;99312.47;172929;28;1181;-49
2021/12/17 00:15:49;;;;;;;;;;;;;;;27.02;25.15;99304.59;173343;28;777;-50
2021/12/17 00:15:54;;;;;;;;;;;;;;;27.02;25.20;99313.44;172821;28;1149;-49
2021/12/17 00:16:00;;;;;;;;;;;;;;;27.03;25.46;99311.63;172405;28;1092;-49
2021/12/17 00:16:16;;;;;;;;;;;;;;;26.98;25.46;99314.53;172844;28;1141;-49
2021/12/17 00:16:24;;;;;;;;;;;;;;;26.99;25.02;99310.94;172123;28;1436;-48
2021/12/17 00:16:35;;;;;;;;;;;;;;;26.96;25.33;99321.72;172734;28;963;-49
2021/12/17 00:16:41;;;;;;;;;;;;;;;26.93;25.14;99314.78;172706;28;1452;-50
2021/12/17 00:16:47;;;;;;;;;;;;;;;26.99;25.19;99317.09;172510;28;1434;-49
2021/12/17 00:16:52;;;;;;;;;;;;;;;26.99;25.39;99313.59;172394;28;1029;-50
2021/12/17 00:17:03;;;;;;;;;;;;;;;27.02;25.34;99312.53;173260;28;588;-48
2021/12/17 00:17:11;;;;;;;;;;;;;;;27.02;25.31;99309.88;173201;28;897;-49
2021/12/17 00:17:21;;;;;;;;;;;;;;;27.05;25.04;99309.78;172737;28;1029;-49
2021/12/17 00:17:30;;;;;;;;;;;;;;;27.01;24.95;99309.03;173317;28;1176;-50
2021/12/17 00:17:39;;;;;;;;;;;;;;;26.96;25.28;99314.63;172631;28;881;-50
2021/12/17 00:17:54;;;;;;;;;;;;;;;26.99;25.42;99311.78;172662;28;899;-49
2021/12/17 00:18:07;;;;;;;;;;;;;;;26.94;25.42;99308.56;171883;28;935;-49
2021/12/17 00:18:21;;;;;;;;;;;;;;;26.96;25.32;99306.69;172686;28;870;-49
2021/12/17 00:18:40;;;;;;;;;;;;;;;26.96;25.33;99314.63;172904;28;1040;-49
2021/12/17 00:40:14;;;;;;;;;;;;;;;26.96;25.43;99313.75;172485;28;920;-50
2021/12/17 00:40:33;;;;;;;;;;;;;;;26.67;25.65;99275.69;171242;28;850;-49
2021/12/17 00:44:16;;;;;;;;;;;;;;;26.71;25.44;99282.53;171254;28;660;-50
2021/12/17 00:48:36;;;;;;;;;;;;;;;26.75;25.35;99281.41;171563;28;689;-50
2021/12/17 00:48:41;;;;;;;;;;;;;;;26.66;25.61;99282.78;171861;28;1019;-49
2021/12/17 00:48:46;;;;;;;;;;;;;;;26.67;25.79;99284.47;171916;28;565;-50
2021/12/17 00:48:51;;;;;;;;;;;;;;;26.67;25.58;99280.97;172160;28;1181;-50
2021/12/17 00:48:56;;;;;;;;;;;;;;;26.65;25.74;99278.44;171938;28;809;-49
2021/12/17 00:49:02;;;;;;;;;;;;;;;26.69;25.77;99287.88;171727;28;1121;-50
2021/12/17 00:49:07;;;;;;;;;;;;;;;26.72;25.22;99284.25;172665;28;1059;-50
2021/12/17 00:49:12;;;;;;;;;;;;;;;26.73;25.56;99282.44;171877;28;940;-50
2021/12/17 00:49:18;;;;;;;;;;;;;;;26.74;25.40;99284.16;172555;28;1211;-48
2021/12/17 00:49:24;;;;;;;;;;;;;;;26.69;25.56;99284.41;172717;28;896;-50
2021/12/17 00:49:30;;;;;;;;;;;;;;;26.66;25.50;99285.44;171986;28;1239;-50
2021/12/17 00:49:38;;;;;;;;;;;;;;;26.68;25.69;99282.69;172025;28;1315;-48
2021/12/17 00:50:58;;;;;;;;;;;;;;;26.84;25.23;99283.53;171376;28;675;-50
2021/12/17 00:52:03;;;;;;;;;;;;;;;26.81;25.41;99274.91;171736;28;871;-49
2021/12/17 00:52:08;;;;;;;;;;;;;;;26.78;25.29;99273.31;171849;28;689;-50
2021/12/17 00:52:13;;;;;;;;;;;;;;;26.80;25.25;99278.50;172134;28;1178;-49
2021/12/17 00:52:18;;;;;;;;;;;;;;;26.82;25.31;99282.78;172617;28;889;-49
2021/12/17 00:52:24;;;;;;;;;;;;;;;26.82;25.28;99277.47;172262;28;1102;-50
2021/12/17 00:52:32;;;;;;;;;;;;;;;26.80;25.50;99279.38;171604;28;1288;-49
2021/12/17 00:52:39;;;;;;;;;;;;;;;26.81;25.32;99278.41;172443;28;1178;-50
2021/12/17 00:52:44;;;;;;;;;;;;;;;26.85;25.51;99273.78;172600;28;743;-50
2021/12/17 00:52:49;;;;;;;;;;;;;;;26.87;25.25;99275.44;172005;28;1074;-51
2021/12/17 00:52:55;;;;;;;;;;;;;;;26.86;25.44;99270.19;171826;28;849;-49
2021/12/17 00:53:00;;;;;;;;;;;;;;;26.87;25.56;99277.22;171925;28;1161;-49
2021/12/17 00:53:06;;;;;;;;;;;;;;;26.82;25.47;99266.88;171893;28;873;-49
2021/12/17 00:53:16;;;;;;;;;;;;;;;26.83;25.39;99270.38;172176;28;967;-49
2021/12/17 00:53:25;;;;;;;;;;;;;;;26.90;25.38;99264.66;171968;28;983;-49
2021/12/17 00:53:31;;;;;;;;;;;;;;;26.91;25.15;99263.72;172614;28;806;-49
2021/12/17 00:53:36;;;;;;;;;;;;;;;26.90;25.35;99272.59;172064;28;1168;-51
2021/12/17 00:53:41;;;;;;;;;;;;;;;26.92;25.29;99269.84;171989;28;826;-50
2021/12/17 00:53:46;;;;;;;;;;;;;;;26.86;25.49;99271.09;172131;28;1142;-49
2021/12/17 00:53:52;;;;;;;;;;;;;;;26.86;25.21;99268.44;172659;28;937;-49
2021/12/17 00:53:58;;;;;;;;;;;;;;;26.78;25.55;99269.78;172216;28;1153;-50
2021/12/17 00:54:07;;;;;;;;;;;;;;;26.78;25.40;99262.72;171792;28;1149;-49
2021/12/17 00:54:20;;;;;;;;;;;;;;;26.84;25.36;99267.66;172557;28;1251;-51
2021/12/17 00:54:37;;;;;;;;;;;;;;;26.89;25.39;99268.25;171268;28;882;-50
2021/12/17 00:54:42;;;;;;;;;;;;;;;26.84;25.36;99270.28;172580;28;1240;-49
2021/12/17 00:54:47;;;;;;;;;;;;;;;26.81;25.53;99270.47;171914;28;1029;-49
2021/12/17 00:54:52;;;;;;;;;;;;;;;26.77;25.56;99266.28;172005;28;956;-49
2021/12/17 00:54:58;;;;;;;;;;;;;;;26.80;25.61;99266.13;171736;28;978;-51
2021/12/17 00:55:03;;;;;;;;;;;;;;;26.84;25.24;99267.66;171755;28;1097;-50
2021/12/17 00:55:09;;;;;;;;;;;;;;;26.79;25.25;99264.44;172253;28;1085;-50
2021/12/17 00:55:14;;;;;;;;;;;;;;;26.81;25.13;99265.19;171959;28;892;-49
2021/12/17 00:55:19;;;;;;;;;;;;;;;26.82;25.28;99263.38;172000;28;1169;-50
2021/12/17 00:55:24;;;;;;;;;;;;;;;26.88;25.48;99263.06;172166;28;4124;-50
2021/12/17 00:55:29;;;;;;;;;;;;;;;26.83;25.45;99263.28;172592;28;846;-49
2021/12/17 00:55:35;;;;;;;;;;;;;;;26.83;25.22;99268.59;171570;28;1409;-48
2021/12/17 00:55:40;;;;;;;;;;;;;;;26.83;25.25;99271.25;171122;28;1576;-50
2021/12/17 00:55:45;;;;;;;;;;;;;;;26.83;25.28;99262.44;171695;28;1216;-50
2021/12/17 00:55:50;;;;;;;;;;;;;;;26.82;25.50;99266.03;171922;28;948;-48
2021/12/17 00:55:55;;;;;;;;;;;;;;;26.86;25.45;99264.91;172018;28;1137;-50
2021/12/17 00:56:01;;;;;;;;;;;;;;;26.89;25.20;99262.09;171222;28;1702;-49
2021/12/17 00:56:06;;;;;;;;;;;;;;;26.86;25.49;99265.78;171813;28;987;-50
2021/12/17 00:56:11;;;;;;;;;;;;;;;26.88;25.18;99258.59;172084;28;813;-50
2021/12/17 00:56:16;;;;;;;;;;;;;;;26.92;25.17;99265.41;171932;28;960;-49
2021/12/17 00:56:22;;;;;;;;;;;;;;;26.94;25.22;99260.91;172457;28;1138;-49
2021/12/17 00:56:27;;;;;;;;;;;;;;;26.97;25.01;99263.38;172578;28;865;-49
2021/12/17 00:56:33;;;;;;;;;;;;;;;26.92;25.44;99254.81;171961;28;1169;-49
2021/12/17 00:56:38;;;;;;;;;;;;;;;26.95;25.36;99262.59;171790;28;905;-49
2021/12/17 00:56:43;;;;;;;;;;;;;;;26.96;25.05;99264.31;172122;28;1165;-49
2021/12/17 00:56:49;;;;;;;;;;;;;;;26.92;25.41;99265.41;172671;28;817;-49
2021/12/17 00:56:54;;;;;;;;;;;;;;;26.92;24.97;99257.47;172212;28;1217;-51
2021/12/17 00:57:01;;;;;;;;;;;;;;;26.92;25.33;99257.47;171756;28;1114;-51
2021/12/17 00:57:08;;;;;;;;;;;;;;;26.90;25.34;99261.16;172262;28;1146;-48
2021/12/17 00:57:15;;;;;;;;;;;;;;;26.90;25.26;99263.81;171887;28;855;-49
2021/12/17 00:57:23;;;;;;;;;;;;;;;26.97;25.10;99260.72;172974;28;1107;-51
2021/12/17 00:57:35;;;;;;;;;;;;;;;26.98;25.26;99257.13;172581;28;1055;-50
2021/12/17 00:57:42;;;;;;;;;;;;;;;27.02;25.27;99264.88;173119;28;1157;-49
2021/12/17 00:57:48;;;;;;;;;;;;;;;26.99;25.10;99261.47;172582;28;829;-51
2021/12/17 00:57:53;;;;;;;;;;;;;;;26.96;25.20;99261.66;172706;28;1165;-50
2021/12/17 00:57:58;;;;;;;;;;;;;;;26.92;25.06;99257.47;173146;28;813;-50
2021/12/17 00:58:03;;;;;;;;;;;;;;;26.90;24.99;99263.81;172518;28;1105;-50
2021/12/17 00:58:08;;;;;;;;;;;;;;;26.87;25.20;99254.25;173047;28;913;-52
2021/12/17 00:58:14;;;;;;;;;;;;;;;26.86;25.19;99262.25;172487;28;844;-50
2021/12/17 00:58:19;;;;;;;;;;;;;;;26.85;25.13;99261.41;173170;28;1154;-49
2021/12/17 00:58:24;;;;;;;;;;;;;;;26.84;25.20;99258.84;173245;28;880;-49
2021/12/17 00:58:29;;;;;;;;;;;;;;;26.83;25.17;99260.66;172889;28;1165;-50
2021/12/17 00:58:34;;;;;;;;;;;;;;;26.87;25.35;99258.69;172700;28;1065;-50
2021/12/17 00:58:39;;;;;;;;;;;;;;;26.89;25.36;99260.31;172650;28;1204;-49
2021/12/17 00:58:45;;;;;;;;;;;;;;;26.91;25.36;99257.56;173177;28;948;-50
2021/12/17 00:58:50;;;;;;;;;;;;;;;26.90;25.11;99262.00;173285;28;809;-50
2021/12/17 00:58:55;;;;;;;;;;;;;;;26.78;25.22;99257.44;172498;28;1050;-50
2021/12/17 00:59:00;;;;;;;;;;;;;;;26.84;25.26;99261.50;172306;28;1074;-49
2021/12/17 00:59:06;;;;;;;;;;;;;;;26.90;25.23;99253.22;172887;28;1040;-50
2021/12/17 00:59:11;;;;;;;;;;;;;;;26.90;25.15;99262.00;172688;28;817;-49
2021/12/17 00:59:19;;;;;;;;;;;;;;;26.87;25.46;99262.19;172899;28;1114;-49
2021/12/17 00:59:24;;;;;;;;;;;;;;;26.80;25.52;99260.84;172193;28;4248;-49
2021/12/17 00:59:31;;;;;;;;;;;;;;;26.77;25.64;99262.78;172070;28;1251;-50
2021/12/17 00:59:36;;;;;;;;;;;;;;;26.80;25.27;99259.97;171963;28;1016;-49
2021/12/17 00:59:42;;;;;;;;;;;;;;;26.85;25.47;99261.41;172525;28;1193;-49
2021/12/17 00:59:49;;;;;;;;;;;;;;;26.91;25.40;99250.47;172678;28;1016;-49
2021/12/17 00:59:54;;;;;;;;;;;;;;;26.92;25.09;99261.91;171777;28;790;-49
2021/12/17 01:00:00;;;;;;;;;;;;;;;26.91;25.09;99255.78;171756;28;1197;-48
2021/12/17 01:00:06;;;;;;;;;;;;;;;26.95;25.10;99262.59;172403;28;1038;-47
2021/12/17 01:00:13;;;;;;;;;;;;;;;26.96;25.05;99255.53;171981;28;1075;-48
2021/12/17 01:00:20;;;;;;;;;;;;;;;26.93;24.89;99267.13;171297;28;873;-48
2021/12/17 01:00:25;;;;;;;;;;;;;;;26.98;25.14;99256.28;171565;28;1169;-50
2021/12/17 01:00:31;;;;;;;;;;;;;;;26.91;25.40;99254.91;172690;28;782;-49
2021/12/17 01:00:36;;;;;;;;;;;;;;;26.93;25.22;99256.53;172596;28;855;-49
2021/12/17 01:00:41;;;;;;;;;;;;;;;26.92;25.24;99262.75;171573;28;925;-49
2021/12/17 01:00:46;;;;;;;;;;;;;;;26.98;25.08;99261.56;171915;28;1052;-50
2021/12/17 01:00:51;;;;;;;;;;;;;;;27.00;25.32;99259.69;172388;28;1217;-48
2021/12/17 01:00:57;;;;;;;;;;;;;;;27.00;25.29;99259.69;172550;28;904;-49
2021/12/17 01:01:02;;;;;;;;;;;;;;;26.97;25.23;99255.44;172367;28;1136;-50
2021/12/17 01:01:07;;;;;;;;;;;;;;;26.99;25.12;99256.19;172503;28;1032;-49
2021/12/17 01:01:12;;;;;;;;;;;;;;;26.98;25.24;99253.63;172071;28;1216;-49
2021/12/17 01:01:18;;;;;;;;;;;;;;;27.02;25.02;99256.94;172609;28;860;-51
2021/12/17 01:01:24;;;;;;;;;;;;;;;26.98;25.28;99256.28;171756;28;1500;-49
2021/12/17 01:01:29;;;;;;;;;;;;;;;26.95;25.31;99259.09;171713;28;882;-48
2021/12/17 01:01:35;;;;;;;;;;;;;;;26.93;25.15;99258.31;171896;28;1037;-49
2021/12/17 01:01:40;;;;;;;;;;;;;;;26.96;25.11;99261.66;172578;28;1342;-49
2021/12/17 01:01:45;;;;;;;;;;;;;;;27.00;25.03;99262.31;172612;28;897;-49
2021/12/17 01:01:52;;;;;;;;;;;;;;;26.99;25.22;99260.63;172126;28;1169;-48
2021/12/17 01:01:58;;;;;;;;;;;;;;;27.00;25.06;99257.03;171820;28;949;-49
2021/12/17 01:02:05;;;;;;;;;;;;;;;27.00;25.25;99263.19;171808;28;1054;-50
2021/12/17 01:02:11;;;;;;;;;;;;;;;26.96;25.10;99261.66;171962;28;1019;-49
2021/12/17 01:02:18;;;;;;;;;;;;;;;26.96;25.04;99260.81;172566;28;915;-49
2021/12/17 01:02:25;;;;;;;;;;;;;;;26.96;25.32;99264.31;172074;28;1141;-48
2021/12/17 01:02:31;;;;;;;;;;;;;;;26.99;25.04;99261.47;172670;28;905;-48
2021/12/17 01:02:37;;;;;;;;;;;;;;;27.01;25.26;99258.72;172277;28;1105;-51
2021/12/17 01:02:42;;;;;;;;;;;;;;;27.03;25.02;99261.31;172057;28;912;-50
2021/12/17 01:02:47;;;;;;;;;;;;;;;27.03;25.05;99264.81;172144;28;1142;-48
2021/12/17 01:02:53;;;;;;;;;;;;;;;27.01;25.19;99258.72;172680;28;992;-49
2021/12/17 01:02:58;;;;;;;;;;;;;;;26.98;25.07;99259.78;172363;28;1279;-50
2021/12/17 01:03:03;;;;;;;;;;;;;;;27.00;24.97;99257.03;171852;28;1129;-49
2021/12/17 01:03:08;;;;;;;;;;;;;;;27.00;25.08;99259.69;171766;28;1071;-48
2021/12/17 01:03:13;;;;;;;;;;;;;;;27.01;25.02;99264.03;172570;28;1165;-48
2021/12/17 01:03:19;;;;;;;;;;;;;;;27.03;25.00;99254.22;172656;28;889;-48
2021/12/17 01:03:24;;;;;;;;;;;;;;;27.02;24.90;99264.88;172268;28;1232;-49
2021/12/17 01:03:29;;;;;;;;;;;;;;;26.97;25.13;99255.44;172001;28;917;-50
2021/12/17 01:03:34;;;;;;;;;;;;;;;27.00;25.29;99259.69;172130;28;1098;-49
2021/12/17 01:03:39;;;;;;;;;;;;;;;27.01;25.06;99261.38;172577;28;965;-49
2021/12/17 01:03:45;;;;;;;;;;;;;;;27.02;25.12;99252.53;172094;28;4663;-47
2021/12/17 01:03:50;;;;;;;;;;;;;;;27.04;25.20;99263.06;172333;28;1515;-50
2021/12/17 01:03:55;;;;;;;;;;;;;;;26.97;24.96;99263.38;172115;28;846;-48
2021/12/17 01:04:00;;;;;;;;;;;;;;;27.01;25.10;99264.03;172684;28;1029;-49
2021/12/17 01:04:06;;;;;;;;;;;;;;;26.92;25.19;99256.63;172604;28;854;-49
2021/12/17 01:04:11;;;;;;;;;;;;;;;26.94;24.98;99255.63;172913;28;982;-49
2021/12/17 01:04:16;;;;;;;;;;;;;;;26.92;25.11;99262.75;173239;28;821;-50
2021/12/17 01:04:21;;;;;;;;;;;;;;;26.92;25.22;99254.81;173086;28;1153;-49
2021/12/17 01:04:26;;;;;;;;;;;;;;;27.00;25.07;99259.69;172558;28;1011;-49
2021/12/17 01:04:32;;;;;;;;;;;;;;;26.98;25.34;99257.13;172561;28;1188;-50
2021/12/17 01:04:38;;;;;;;;;;;;;;;26.98;25.09;99257.13;173332;28;948;-49
2021/12/17 01:04:49;;;;;;;;;;;;;;;26.98;25.03;99251.81;173129;28;1233;-49
2021/12/17 01:04:55;;;;;;;;;;;;;;;27.02;24.95;99255.16;171855;28;856;-49
2021/12/17 01:05:03;;;;;;;;;;;;;;;27.00;25.23;99252.59;172392;28;1220;-48
2021/12/17 01:05:12;;;;;;;;;;;;;;;26.98;25.21;99257.13;172604;28;877;-49
2021/12/17 01:05:21;;;;;;;;;;;;;;;26.95;25.08;99254.66;173235;28;1038;-48
2021/12/17 01:05:27;;;;;;;;;;;;;;;26.94;25.03;99258.25;171838;28;1907;-49
2021/12/17 01:05:32;;;;;;;;;;;;;;;26.94;25.07;99247.66;172369;28;1141;-49
2021/12/17 01:05:38;;;;;;;;;;;;;;;26.94;25.11;99260.91;172617;28;770;-48
2021/12/17 01:05:43;;;;;;;;;;;;;;;26.93;25.33;99263.63;172667;28;1164;-49
2021/12/17 01:05:48;;;;;;;;;;;;;;;26.91;25.12;99261.06;172934;28;778;-48
2021/12/17 01:05:53;;;;;;;;;;;;;;;26.93;25.08;99255.69;172567;28;841;-49
2021/12/17 01:05:58;;;;;;;;;;;;;;;26.88;25.39;99249.81;171926;28;1125;-49
2021/12/17 01:06:04;;;;;;;;;;;;;;;26.90;25.37;99261.16;171787;28;1173;-48
2021/12/17 01:06:09;;;;;;;;;;;;;;;26.86;25.37;99249.03;172072;28;1196;-48
2021/12/17 01:06:14;;;;;;;;;;;;;;;26.85;25.44;99256.13;171967;28;802;-48
2021/12/17 01:06:19;;;;;;;;;;;;;;;26.90;25.38;99256.72;171656;28;1449;-50
2021/12/17 01:06:24;;;;;;;;;;;;;;;26.85;25.18;99261.41;171435;28;1662;-49
2021/12/17 01:06:30;;;;;;;;;;;;;;;26.80;25.40;99258.19;171595;28;1667;-48
2021/12/17 01:06:35;;;;;;;;;;;;;;;26.85;25.17;99258.75;171907;28;900;-50
2021/12/17 01:06:40;;;;;;;;;;;;;;;26.88;25.14;99255.09;172030;28;948;-49
2021/12/17 01:06:45;;;;;;;;;;;;;;;26.93;25.35;99256.53;172443;28;1229;-49
2021/12/17 01:06:50;;;;;;;;;;;;;;;26.95;25.22;99249.38;171809;28;1598;-49
2021/12/17 01:06:56;;;;;;;;;;;;;;;26.87;25.42;99259.56;171905;28;938;-49
2021/12/17 01:07:01;;;;;;;;;;;;;;;26.90;25.39;99255.88;171756;28;1157;-50
2021/12/17 01:07:06;;;;;;;;;;;;;;;26.89;25.32;99255.00;172092;28;1067;-49
2021/12/17 01:07:12;;;;;;;;;;;;;;;26.89;25.32;99262.09;172068;28;806;-48
2021/12/17 01:07:18;;;;;;;;;;;;;;;26.89;25.09;99254.16;171883;28;1015;-49
2021/12/17 01:07:24;;;;;;;;;;;;;;;26.94;25.34;99250.31;172611;28;805;-48
2021/12/17 01:07:29;;;;;;;;;;;;;;;26.96;25.17;99258.16;172475;28;4348;-50
2021/12/17 01:07:35;;;;;;;;;;;;;;;26.91;25.19;99250.47;172678;28;1015;-48
2021/12/17 01:07:41;;;;;;;;;;;;;;;26.92;25.34;99251.31;172598;28;1133;-49
2021/12/17 01:07:47;;;;;;;;;;;;;;;26.99;25.13;99253.53;173312;28;873;-49
2021/12/17 01:07:53;;;;;;;;;;;;;;;26.91;25.34;99247.81;173216;28;1156;-49
2021/12/17 01:07:58;;;;;;;;;;;;;;;26.88;25.08;99255.97;172540;28;802;-49
2021/12/17 01:08:04;;;;;;;;;;;;;;;26.92;25.08;99252.19;172347;28;1127;-49
2021/12/17 01:08:09;;;;;;;;;;;;;;;26.97;25.30;99255.44;172824;28;1072;-49
2021/12/17 01:08:14;;;;;;;;;;;;;;;26.98;25.25;99257.13;173274;28;900;-49
2021/12/17 01:08:19;;;;;;;;;;;;;;;27.03;24.95;99256.03;173762;28;1181;-49
2021/12/17 01:08:24;;;;;;;;;;;;;;;26.99;25.00;99256.19;173944;28;877;-50
2021/12/17 01:08:30;;;;;;;;;;;;;;;26.93;25.06;99245.94;173589;28;1156;-48
2021/12/17 01:08:35;;;;;;;;;;;;;;;26.95;25.26;99254.66;173297;28;884;-49